createdAt,value
2018-04-07T00:00:55.757Z,10.17
2018-04-07T00:03:24.915Z,8.73
2018-04-07T00:05:54.060Z,9.17
2018-04-07T00:08:23.230Z,9.07
2018-04-07T00:10:52.411Z,8.93
2018-04-07T00:13:21.705Z,9.03
2018-04-07T00:15:50.745Z,7.17
2018-04-07T00:18:19.800Z,6.90
2018-04-07T00:20:48.820Z,6.97
2018-04-07T00:23:17.999Z,6.43
2018-04-07T00:25:47.157Z,7.40
2018-04-07T00:28:16.194Z,5.97
2018-04-07T00:30:45.221Z,8.93
2018-04-07T00:33:14.392Z,6.47
2018-04-07T00:35:43.702Z,8.67
2018-04-07T00:38:12.723Z,8.77
2018-04-07T00:40:41.819Z,5.67
2018-04-07T00:43:11.045Z,9.07
2018-04-07T00:45:40.133Z,6.47
2018-04-07T00:48:09.305Z,6.43
2018-04-07T00:50:38.454Z,6.33
2018-04-07T00:53:07.411Z,8.33
2018-04-07T00:55:36.618Z,4.30
2018-04-07T00:58:06.108Z,5.27
2018-04-07T01:00:35.148Z,7.10
2018-04-07T01:03:04.214Z,5.30
2018-04-07T01:05:33.316Z,5.13
2018-04-07T01:08:02.439Z,6.40
2018-04-07T01:10:31.619Z,6.67
2018-04-07T01:13:00.661Z,7.17
2018-04-07T01:15:29.713Z,5.97
2018-04-07T01:17:58.773Z,5.73
2018-04-07T01:20:28.013Z,6.60
2018-04-07T01:22:57.427Z,9.93
2018-04-07T01:25:26.502Z,4.77
2018-04-07T01:27:55.658Z,4.63
2018-04-07T01:30:25.029Z,6.27
2018-04-07T01:32:54.215Z,6.30
2018-04-07T01:35:23.281Z,5.00
2018-04-07T01:37:52.315Z,5.87
2018-04-07T01:40:21.301Z,6.50
2018-04-07T01:42:50.392Z,5.27
2018-04-07T01:45:19.561Z,6.27
2018-04-07T01:47:48.869Z,6.30
2018-04-07T01:50:18.073Z,6.40
2018-04-07T01:52:47.303Z,4.63
2018-04-07T01:55:16.627Z,6.47
2018-04-07T01:57:45.727Z,4.73
2018-04-07T02:00:14.718Z,3.37
2018-04-07T02:02:43.835Z,4.77
2018-04-07T02:05:12.960Z,6.27
2018-04-07T02:07:42.060Z,5.10
2018-04-07T02:10:11.218Z,10.00
2018-04-07T02:12:40.418Z,8.50
2018-04-07T02:15:09.880Z,4.13
2018-04-07T02:17:38.966Z,4.97
2018-04-07T02:20:08.092Z,5.47
2018-04-07T02:22:37.253Z,7.10
2018-04-07T02:25:06.386Z,9.70
2018-04-07T02:27:35.874Z,6.37
2018-04-07T02:30:04.866Z,6.93
2018-04-07T02:32:34.301Z,8.40
2018-04-07T02:35:03.414Z,8.87
2018-04-07T02:37:32.711Z,8.27
2018-04-07T02:40:02.064Z,9.80
2018-04-07T02:42:31.258Z,7.00
2018-04-07T02:45:00.298Z,6.67
2018-04-07T02:47:29.478Z,6.30
2018-04-07T02:49:58.496Z,8.40
2018-04-07T02:52:27.582Z,7.90
2018-04-07T02:54:56.685Z,8.57
2018-04-07T02:57:25.635Z,9.10
2018-04-07T02:59:55.780Z,10.90
2018-04-07T03:02:24.818Z,6.47
2018-04-07T03:04:53.834Z,11.37
2018-04-07T03:07:22.996Z,9.93
2018-04-07T03:09:51.993Z,11.43
2018-04-07T03:12:21.161Z,9.77
2018-04-07T03:14:50.384Z,12.50
2018-04-07T03:17:19.583Z,12.10
2018-04-07T03:19:48.813Z,10.03
2018-04-07T03:22:17.865Z,12.57
2018-04-07T03:24:46.970Z,17.13
2018-04-07T03:27:16.099Z,12.40
2018-04-07T03:29:45.254Z,13.97
2018-04-07T03:32:14.511Z,14.57
2018-04-07T03:34:43.873Z,14.20
2018-04-07T03:37:13.062Z,13.97
2018-04-07T03:39:42.325Z,11.67
2018-04-07T03:42:11.520Z,13.07
2018-04-07T03:44:40.574Z,14.10
2018-04-07T03:47:10.381Z,11.77
2018-04-07T03:49:39.442Z,10.27
2018-04-07T03:52:08.501Z,10.20
2018-04-07T03:54:37.586Z,10.23
2018-04-07T03:57:06.875Z,10.67
2018-04-07T03:59:36.171Z,9.13
2018-04-07T04:02:05.860Z,10.70
2018-04-07T04:04:35.089Z,13.47
2018-04-07T04:07:04.412Z,11.33
2018-04-07T04:09:33.616Z,10.10
2018-04-07T04:12:02.763Z,10.00
2018-04-07T04:14:31.774Z,5.87
2018-04-07T04:17:00.901Z,9.97
2018-04-07T04:19:30.296Z,16.47
2018-04-07T04:21:59.449Z,9.13
2018-04-07T04:24:28.632Z,9.07
2018-04-07T04:26:57.761Z,8.63
2018-04-07T04:29:26.837Z,7.83
2018-04-07T04:31:56.096Z,7.10
2018-04-07T04:34:25.088Z,8.47
2018-04-07T04:36:54.135Z,7.40
2018-04-07T04:39:23.502Z,6.70
2018-04-07T04:41:52.529Z,4.50
2018-04-07T04:44:21.537Z,5.60
2018-04-07T04:46:50.755Z,3.67
2018-04-07T04:49:19.977Z,4.93
2018-04-07T04:51:49.039Z,4.53
2018-04-07T04:54:18.027Z,4.80
2018-04-07T04:56:47.107Z,3.80
2018-04-07T04:59:16.450Z,10.00
2018-04-07T05:01:45.505Z,4.13
2018-04-07T05:04:14.594Z,4.50
2018-04-07T05:06:43.858Z,4.40
2018-04-07T05:09:13.042Z,7.63
2018-04-07T05:11:42.142Z,5.43
2018-04-07T05:14:11.139Z,7.93
2018-04-07T05:16:40.417Z,5.40
2018-04-07T05:19:09.617Z,3.67
2018-04-07T05:21:38.909Z,26.13
2018-04-07T05:24:07.935Z,11.97
2018-04-07T05:26:36.955Z,5.00
2018-04-07T05:29:06.175Z,5.83
2018-04-07T05:31:35.509Z,7.13
2018-04-07T05:34:04.738Z,7.47
2018-04-07T05:36:34.490Z,9.83
2018-04-07T05:39:03.736Z,6.63
2018-04-07T05:41:32.847Z,6.00
2018-04-07T05:44:02.074Z,9.97
2018-04-07T05:46:31.438Z,4.77
2018-04-07T05:49:00.591Z,9.10
2018-04-07T05:51:29.941Z,6.03
2018-04-07T05:53:59.190Z,7.17
2018-04-07T05:56:28.272Z,25.77
2018-04-07T05:58:58.250Z,23.30
2018-04-07T06:01:27.340Z,15.50
2018-04-07T06:03:56.401Z,14.20
2018-04-07T06:06:25.524Z,12.03
2018-04-07T06:08:54.739Z,30.60
2018-04-07T06:11:23.848Z,15.80
2018-04-07T06:13:52.945Z,16.67
2018-04-07T06:16:22.011Z,18.20
2018-04-07T06:18:51.302Z,13.03
2018-04-07T06:21:20.361Z,14.83
2018-04-07T06:23:49.533Z,13.07
2018-04-07T06:26:18.527Z,12.00
2018-04-07T06:28:47.909Z,15.53
2018-04-07T06:31:17.778Z,18.40
2018-04-07T06:33:46.809Z,9.83
2018-04-07T06:36:16.025Z,15.10
2018-04-07T06:38:45.574Z,12.30
2018-04-07T06:41:14.731Z,16.73
2018-04-07T06:43:43.864Z,12.43
2018-04-07T06:46:13.101Z,19.53
2018-04-07T06:48:42.327Z,15.60
2018-04-07T06:51:11.506Z,11.27
2018-04-07T06:53:40.562Z,11.77
2018-04-07T06:56:09.925Z,16.07
2018-04-07T06:58:38.949Z,11.27
2018-04-07T07:01:08.026Z,16.90
2018-04-07T07:03:37.141Z,9.10
2018-04-07T07:06:06.109Z,8.37
2018-04-07T07:08:35.237Z,6.43
2018-04-07T07:11:04.310Z,7.27
2018-04-07T07:13:33.384Z,4.80
2018-04-07T07:16:02.409Z,6.13
2018-04-07T07:18:31.424Z,6.57
2018-04-07T07:21:00.561Z,9.30
2018-04-07T07:23:29.727Z,6.40
2018-04-07T07:25:58.813Z,7.30
2018-04-07T07:28:27.975Z,6.57
2018-04-07T07:30:57.061Z,6.43
2018-04-07T07:33:26.077Z,6.43
2018-04-07T07:35:55.143Z,6.17
2018-04-07T07:38:24.233Z,6.73
2018-04-07T07:40:53.321Z,6.87
2018-04-07T07:43:22.385Z,5.47
2018-04-07T07:45:51.549Z,7.60
2018-04-07T07:48:20.791Z,5.73
2018-04-07T07:50:49.892Z,9.87
2018-04-07T07:53:18.874Z,12.93
2018-04-07T07:55:48.133Z,6.83
2018-04-07T07:58:17.211Z,8.03
2018-04-07T08:00:46.362Z,9.97
2018-04-07T08:03:15.575Z,8.47
2018-04-07T08:05:44.690Z,6.97
2018-04-07T08:08:14.023Z,9.37
2018-04-07T08:10:43.223Z,8.63
2018-04-07T08:13:13.102Z,8.20
2018-04-07T08:15:42.173Z,8.80
2018-04-07T08:18:11.335Z,8.10
2018-04-07T08:20:40.616Z,7.47
2018-04-07T08:23:09.742Z,8.10
2018-04-07T08:25:38.818Z,7.17
2018-04-07T08:28:07.879Z,6.93
2018-04-07T08:30:37.025Z,9.17
2018-04-07T08:33:06.026Z,10.10
2018-04-07T08:35:35.308Z,10.13
2018-04-07T08:38:04.470Z,8.13
2018-04-07T08:40:33.719Z,8.33
2018-04-07T08:43:02.856Z,6.93
2018-04-07T08:45:31.931Z,6.83
2018-04-07T08:48:01.266Z,10.43
2018-04-07T08:50:30.511Z,11.47
2018-04-07T08:52:59.636Z,11.83
2018-04-07T08:55:28.977Z,6.60
2018-04-07T08:57:58.186Z,8.27
2018-04-07T09:00:27.461Z,8.43
2018-04-07T09:02:56.661Z,7.03
2018-04-07T09:05:25.898Z,8.43
2018-04-07T09:07:55.208Z,9.33
2018-04-07T09:10:24.373Z,8.40
2018-04-07T09:12:53.439Z,8.97
2018-04-07T09:15:22.532Z,8.80
2018-04-07T09:17:51.829Z,11.03
2018-04-07T09:20:20.846Z,11.63
2018-04-07T09:22:50.037Z,9.00
2018-04-07T09:25:19.402Z,9.53
2018-04-07T09:27:48.577Z,10.10
2018-04-07T09:30:17.595Z,8.73
2018-04-07T09:32:46.639Z,8.90
2018-04-07T09:35:15.622Z,11.30
2018-04-07T09:37:44.757Z,9.07
2018-04-07T09:40:13.759Z,9.00
2018-04-07T09:42:42.864Z,10.60
2018-04-07T09:45:12.135Z,12.13
2018-04-07T09:47:41.346Z,11.30
2018-04-07T09:50:10.445Z,11.73
2018-04-07T09:52:39.571Z,11.43
2018-04-07T09:55:08.587Z,7.90
2018-04-07T09:57:37.573Z,12.63
2018-04-07T10:00:06.703Z,11.50
2018-04-07T10:02:35.868Z,10.30
2018-04-07T10:05:05.005Z,8.63
2018-04-07T10:07:34.110Z,10.00
2018-04-07T10:10:03.182Z,9.43
2018-04-07T10:12:32.583Z,11.40
2018-04-07T10:15:01.876Z,12.30
2018-04-07T10:17:30.988Z,15.10
2018-04-07T10:20:00.077Z,13.10
2018-04-07T10:22:29.332Z,11.07
2018-04-07T10:24:58.347Z,11.73
2018-04-07T10:27:27.510Z,11.93
2018-04-07T10:29:56.453Z,13.53
2018-04-07T10:32:25.614Z,15.70
2018-04-07T10:34:54.718Z,11.20
2018-04-07T10:37:23.765Z,11.10
2018-04-07T10:39:52.903Z,13.33
2018-04-07T10:42:22.198Z,13.83
2018-04-07T10:44:51.509Z,14.67
2018-04-07T10:47:20.662Z,10.60
2018-04-07T10:49:49.773Z,15.93
2018-04-07T10:52:18.943Z,22.47
2018-04-07T10:54:48.089Z,16.73
2018-04-07T10:57:17.315Z,15.00
2018-04-07T10:59:46.700Z,16.27
2018-04-07T11:02:15.796Z,17.70
2018-04-07T11:04:44.931Z,14.47
2018-04-07T11:07:14.192Z,15.40
2018-04-07T11:09:43.343Z,14.07
2018-04-07T11:12:12.426Z,15.17
2018-04-07T11:14:41.621Z,21.07
2018-04-07T11:17:10.865Z,14.33
2018-04-07T11:19:40.061Z,15.17
2018-04-07T11:22:09.230Z,18.20
2018-04-07T11:24:38.521Z,16.10
2018-04-07T11:27:07.890Z,16.23
2018-04-07T11:29:36.973Z,17.60
2018-04-07T11:32:06.186Z,14.13
2018-04-07T11:34:35.281Z,13.20
2018-04-07T11:37:04.423Z,16.13
2018-04-07T11:39:33.419Z,16.10
2018-04-07T11:42:02.453Z,12.60
2018-04-07T11:44:31.557Z,12.43
2018-04-07T11:47:00.630Z,13.30
2018-04-07T11:49:29.635Z,12.00
2018-04-07T11:51:58.726Z,11.60
2018-04-07T11:54:27.747Z,12.93
2018-04-07T11:56:56.908Z,11.50
2018-04-07T11:59:25.936Z,12.30
2018-04-07T12:01:55.169Z,9.33
2018-04-07T12:04:24.213Z,11.40
2018-04-07T12:06:53.359Z,11.70
2018-04-07T12:09:22.341Z,12.87
2018-04-07T12:11:51.401Z,13.03
2018-04-07T12:14:20.355Z,7.27
2018-04-07T12:16:49.394Z,8.67
2018-04-07T12:19:18.398Z,13.37
2018-04-07T12:21:47.449Z,15.73
2018-04-07T12:24:16.379Z,13.80
2018-04-07T12:26:45.395Z,16.47
2018-04-07T12:29:14.668Z,12.00
2018-04-07T12:31:44.516Z,12.10
2018-04-07T12:34:13.703Z,15.77
2018-04-07T12:36:42.977Z,18.33
2018-04-07T12:39:12.309Z,14.27
2018-04-07T12:41:41.378Z,24.73
2018-04-07T12:44:11.407Z,15.00
2018-04-07T12:46:40.509Z,19.20
2018-04-07T12:49:09.477Z,15.83
2018-04-07T12:51:38.455Z,13.13
2018-04-07T12:54:07.613Z,19.77
2018-04-07T12:56:36.591Z,18.77
2018-04-07T12:59:05.642Z,17.17
2018-04-07T13:01:34.670Z,17.27
2018-04-07T13:04:03.681Z,21.53
2018-04-07T13:06:32.666Z,20.93
2018-04-07T13:09:01.679Z,19.67
2018-04-07T13:11:30.793Z,18.17
2018-04-07T13:14:00.166Z,22.50
2018-04-07T13:16:29.486Z,21.50
2018-04-07T13:18:58.634Z,19.57
2018-04-07T13:21:27.793Z,21.67
2018-04-07T13:23:56.913Z,19.67
2018-04-07T13:26:27.017Z,23.10
2018-04-07T13:28:56.145Z,20.83
2018-04-07T13:31:25.211Z,26.83
2018-04-07T13:33:54.360Z,22.83
2018-04-07T13:36:23.461Z,23.13
2018-04-07T13:38:52.446Z,28.27
2018-04-07T13:41:21.540Z,21.73
2018-04-07T13:43:50.540Z,20.30
2018-04-07T13:46:19.786Z,25.30
2018-04-07T13:48:48.925Z,26.83
2018-04-07T13:51:18.207Z,19.80
2018-04-07T13:53:47.435Z,23.23
2018-04-07T13:56:16.443Z,20.90
2018-04-07T13:58:45.652Z,22.40
2018-04-07T14:01:14.929Z,29.50
2018-04-07T14:03:44.113Z,26.17
2018-04-07T14:06:13.370Z,20.70
2018-04-07T14:08:42.545Z,23.93
2018-04-07T14:11:11.614Z,21.33
2018-04-07T14:13:40.879Z,20.83
2018-04-07T14:16:09.961Z,23.67
2018-04-07T14:18:38.878Z,22.40
2018-04-07T14:21:07.923Z,24.57
2018-04-07T14:23:37.074Z,25.17
2018-04-07T14:26:06.194Z,23.30
2018-04-07T14:28:35.353Z,22.73
2018-04-07T14:31:05.017Z,20.27
2018-04-07T14:33:34.104Z,25.70
2018-04-07T14:36:03.246Z,25.20
2018-04-07T14:38:32.614Z,23.80
2018-04-07T14:41:01.598Z,23.43
2018-04-07T14:43:30.747Z,21.30
2018-04-07T14:45:59.992Z,18.40
2018-04-07T14:48:28.975Z,21.13
2018-04-07T14:50:58.139Z,21.20
2018-04-07T14:53:27.388Z,17.80
2018-04-07T14:55:56.603Z,15.13
2018-04-07T14:58:25.677Z,18.00
2018-04-07T15:00:55.078Z,13.20
2018-04-07T15:03:24.235Z,16.63
2018-04-07T15:05:53.436Z,15.33
2018-04-07T15:08:22.590Z,15.00
2018-04-07T15:10:52.485Z,18.03
2018-04-07T15:13:21.796Z,17.80
2018-04-07T15:15:50.953Z,19.30
2018-04-07T15:18:20.141Z,22.27
2018-04-07T15:20:49.392Z,17.87
2018-04-07T15:23:18.596Z,20.53
2018-04-07T15:25:47.715Z,20.13
2018-04-07T15:28:16.798Z,17.33
2018-04-07T15:30:45.807Z,17.50
2018-04-07T15:33:15.030Z,22.70
2018-04-07T15:35:44.522Z,20.83
2018-04-07T15:38:13.727Z,21.13
2018-04-07T15:40:43.077Z,18.77
2018-04-07T15:43:12.179Z,19.03
2018-04-07T15:45:41.159Z,17.33
2018-04-07T15:48:10.349Z,16.23
2018-04-07T15:50:39.697Z,18.97
2018-04-07T15:53:08.914Z,16.53
2018-04-07T15:55:38.302Z,14.03
2018-04-07T15:58:07.527Z,14.80
2018-04-07T16:00:36.581Z,16.73
2018-04-07T16:03:05.730Z,13.30
2018-04-07T16:05:34.811Z,12.30
2018-04-07T16:08:03.942Z,15.50
2018-04-07T16:10:33.207Z,16.57
2018-04-07T16:13:02.259Z,18.10
2018-04-07T16:15:31.349Z,16.20
2018-04-07T16:18:00.445Z,16.27
2018-04-07T16:20:29.555Z,16.70
2018-04-07T16:22:58.660Z,15.57
2018-04-07T16:25:27.718Z,18.13
2018-04-07T16:27:56.985Z,16.83
2018-04-07T16:30:26.237Z,17.63
2018-04-07T16:32:55.369Z,18.40
2018-04-07T16:35:24.489Z,19.47
2018-04-07T16:37:53.823Z,20.87
2018-04-07T16:40:22.866Z,14.30
2018-04-07T16:42:51.845Z,19.03
2018-04-07T16:45:20.899Z,18.17
2018-04-07T16:47:50.589Z,15.87
2018-04-07T16:50:19.888Z,19.87
2018-04-07T16:52:48.888Z,16.63
2018-04-07T16:55:17.998Z,18.37
2018-04-07T16:57:47.281Z,16.63
2018-04-07T17:00:16.368Z,18.37
2018-04-07T17:02:45.643Z,14.67
2018-04-07T17:05:14.813Z,17.17
2018-04-07T17:07:43.783Z,18.10
2018-04-07T17:10:13.653Z,17.37
2018-04-07T17:12:42.662Z,17.43
2018-04-07T17:15:11.644Z,17.73
2018-04-07T17:17:40.677Z,20.23
2018-04-07T17:20:09.858Z,19.43
2018-04-07T17:22:39.158Z,16.83
2018-04-07T17:25:08.158Z,16.53
2018-04-07T17:27:37.112Z,17.13
2018-04-07T17:30:06.237Z,20.37
2018-04-07T17:32:35.186Z,24.17
2018-04-07T17:35:04.168Z,16.67
2018-04-07T17:37:33.248Z,20.77
2018-04-07T17:40:02.338Z,15.87
2018-04-07T17:42:31.339Z,14.73
2018-04-07T17:45:00.413Z,16.13
2018-04-07T17:47:29.712Z,16.03
2018-04-07T17:49:58.939Z,16.60
2018-04-07T17:52:28.261Z,18.33
2018-04-07T17:54:57.203Z,19.93
2018-04-07T17:57:26.257Z,17.47
2018-04-07T17:59:55.293Z,15.77
2018-04-07T18:02:24.358Z,16.43
2018-04-07T18:04:53.406Z,19.83
2018-04-07T18:07:22.363Z,19.17
2018-04-07T18:09:51.367Z,20.77
2018-04-07T18:12:20.449Z,17.83
2018-04-07T18:14:49.551Z,15.87
2018-04-07T18:17:18.571Z,25.90
2018-04-07T18:19:47.791Z,22.53
2018-04-07T18:22:16.899Z,18.10
2018-04-07T18:24:46.099Z,18.77
2018-04-07T18:27:15.103Z,17.90
2018-04-07T18:29:44.830Z,21.80
2018-04-07T18:32:14.111Z,17.53
2018-04-07T18:34:43.337Z,18.60
2018-04-07T18:37:12.396Z,15.90
2018-04-07T18:39:41.501Z,19.30
2018-04-07T18:42:10.526Z,21.30
2018-04-07T18:44:39.619Z,18.77
2018-04-07T18:47:08.761Z,14.37
2018-04-07T18:49:37.849Z,20.30
2018-04-07T18:52:07.439Z,19.83
2018-04-07T18:54:36.445Z,20.83
2018-04-07T18:57:05.505Z,20.83
2018-04-07T18:59:34.482Z,19.57
2018-04-07T19:02:03.489Z,19.07
2018-04-07T19:04:32.498Z,17.90
2018-04-07T19:07:01.569Z,17.43
2018-04-07T19:09:30.814Z,25.60
2018-04-07T19:11:59.905Z,18.27
2018-04-07T19:14:28.885Z,18.57
2018-04-07T19:16:57.831Z,19.73
2018-04-07T19:19:26.841Z,20.03
2018-04-07T19:21:56.034Z,17.43
2018-04-07T19:24:25.053Z,21.80
2018-04-07T19:26:54.224Z,22.20
2018-04-07T19:29:23.371Z,16.23
2018-04-07T19:31:52.561Z,14.90
2018-04-07T19:34:21.563Z,20.13
2018-04-07T19:36:50.785Z,13.90
2018-04-07T19:39:19.816Z,18.37
2018-04-07T19:41:49.034Z,17.73
2018-04-07T19:44:18.434Z,14.97
2018-04-07T19:46:47.545Z,15.13
2018-04-07T19:49:16.656Z,16.17
2018-04-07T19:51:45.786Z,14.47
2018-04-07T19:54:14.898Z,19.43
2018-04-07T19:56:43.951Z,17.07
2018-04-07T19:59:12.967Z,17.17
2018-04-07T20:01:42.027Z,14.97
2018-04-07T20:04:11.072Z,13.60
2018-04-07T20:06:40.224Z,15.27
2018-04-07T20:09:09.321Z,15.97
2018-04-07T20:11:38.498Z,14.33
2018-04-07T20:14:07.821Z,16.10
2018-04-07T20:16:36.885Z,16.07
2018-04-07T20:19:05.885Z,13.83
2018-04-07T20:21:34.917Z,14.57
2018-04-07T20:24:04.026Z,16.40
2018-04-07T20:26:32.989Z,16.97
2018-04-07T20:29:02.058Z,13.47
2018-04-07T20:31:31.051Z,13.63
2018-04-07T20:33:59.977Z,14.47
2018-04-07T20:36:28.946Z,13.80
2018-04-07T20:38:58.167Z,14.20
2018-04-07T20:41:27.309Z,15.07
2018-04-07T20:43:56.542Z,13.53
2018-04-07T20:46:25.805Z,17.07
2018-04-07T20:48:55.265Z,13.47
2018-04-07T20:51:24.301Z,14.87
2018-04-07T20:53:53.408Z,15.03
2018-04-07T20:56:22.889Z,12.93
2018-04-07T20:58:52.166Z,13.77
2018-04-07T21:01:21.461Z,12.20
2018-04-07T21:03:50.518Z,13.03
2018-04-07T21:06:19.547Z,11.27
2018-04-07T21:08:48.556Z,11.60
2018-04-07T21:11:17.672Z,11.87
2018-04-07T21:13:46.653Z,14.07
2018-04-07T21:16:15.615Z,12.87
2018-04-07T21:18:44.806Z,12.30
2018-04-07T21:21:13.975Z,13.20
2018-04-07T21:23:43.105Z,13.67
2018-04-07T21:26:12.082Z,13.00
2018-04-07T21:28:41.167Z,12.30
2018-04-07T21:31:10.186Z,15.23
2018-04-07T21:33:39.326Z,12.80
2018-04-07T21:36:08.296Z,10.77
2018-04-07T21:38:37.709Z,13.93
2018-04-07T21:41:06.834Z,10.60
2018-04-07T21:43:36.241Z,11.70
2018-04-07T21:46:05.528Z,9.93
2018-04-07T21:48:34.818Z,11.17
2018-04-07T21:51:04.044Z,10.33
2018-04-07T21:53:33.356Z,12.27
2018-04-07T21:56:03.057Z,12.00
2018-04-07T21:58:32.511Z,12.00
2018-04-07T22:01:01.675Z,12.17
2018-04-07T22:03:30.763Z,13.57
2018-04-07T22:05:59.901Z,14.27
2018-04-07T22:08:28.806Z,10.70
2018-04-07T22:10:57.843Z,11.13
2018-04-07T22:13:26.965Z,12.70
2018-04-07T22:15:55.846Z,14.17
2018-04-07T22:18:24.869Z,11.40
2018-04-07T22:20:53.821Z,11.80
2018-04-07T22:23:22.701Z,10.03
2018-04-07T22:25:54.777Z,10.33
2018-04-07T22:28:26.937Z,13.13
2018-04-07T22:30:55.996Z,12.33
2018-04-07T22:33:25.099Z,12.53
2018-04-07T22:35:54.154Z,10.73
2018-04-07T22:38:23.235Z,15.13
2018-04-07T22:40:52.070Z,11.47
2018-04-07T22:43:20.930Z,12.37
2018-04-07T22:45:49.957Z,11.00
2018-04-07T22:48:18.885Z,8.83
2018-04-07T22:50:47.899Z,14.20
2018-04-07T22:53:16.872Z,11.27
2018-04-07T22:55:46.030Z,11.43
2018-04-07T22:58:14.921Z,10.20
2018-04-07T23:00:44.466Z,10.40
2018-04-07T23:03:13.683Z,14.33
2018-04-07T23:05:42.666Z,10.73
2018-04-07T23:08:11.561Z,8.70
2018-04-07T23:10:40.548Z,8.27
2018-04-07T23:13:09.687Z,13.53
2018-04-07T23:15:38.770Z,14.53
2018-04-07T23:18:07.777Z,12.70
2018-04-07T23:20:36.842Z,10.87
2018-04-07T23:23:08.059Z,10.73
2018-04-07T23:25:37.073Z,12.47
2018-04-07T23:28:06.066Z,11.53
2018-04-07T23:30:35.323Z,14.53
2018-04-07T23:33:04.892Z,12.37
2018-04-07T23:35:34.117Z,18.00
2018-04-07T23:38:03.324Z,14.53
2018-04-07T23:40:32.486Z,17.33
2018-04-07T23:43:01.507Z,14.60
2018-04-07T23:45:30.634Z,17.67
2018-04-07T23:47:59.662Z,14.40
2018-04-07T23:50:29.886Z,17.03
2018-04-07T23:52:59.190Z,19.13
2018-04-07T23:55:28.353Z,24.83
2018-04-07T23:57:57.392Z,22.10
